Stations météo

réclame
Mon MeteoGroup
Navacerrada, Espagne (8215): Température de l'air & dewpoint: 19.09.2018 13:00:00 - 25.09.2018 13:00:00 (CEST)Navacerrada, Espagne (8215): Vitesse du vent: 19.09.2018 13:00:00 - 25.09.2018 13:00:00 (CEST)Navacerrada, Espagne (8215): Direction du vent: 19.09.2018 13:00:00 - 25.09.2018 13:00:00 (CEST)Navacerrada, Espagne (8215): visibility: 19.09.2018 13:00:00 - 25.09.2018 13:00:00 (CEST)Navacerrada, Espagne (8215): Quantités de précipitations: 19.09.2018 13:00:00 - 25.09.2018 13:00:00 (CEST)
Date & Time tt [°C] td [°C] ff [km/h] ff [knt] dd vv [km] rr [mm]
25.09.2018 13:00:00 19,9 8,2 5 3 WNW 20 0,0
25.09.2018 12:00:00 19,6 8,3 5 3 WSW 20 0,0
25.09.2018 11:00:00 18,4 7,2 5 3 S 40 -
25.09.2018 10:00:00 16,1 5,4 4 2 WNW 20 0,0
25.09.2018 09:00:00 12,8 4,7 8 4 SW 20 0,0
25.09.2018 08:00:00 12,1 3,6 4 2 WSW 15 -
25.09.2018 07:00:00 12,3 4,8 4 2 W 20 0,0
25.09.2018 06:00:00 12,7 2,0 5 3 WNW 20 0,0
25.09.2018 05:00:00 13,3 0,6 8 4 WSW 20 -
25.09.2018 04:00:00 12,6 2,4 5 3 NW 20 0,0
25.09.2018 03:00:00 13,6 6,7 5 3 W 19 0,0
25.09.2018 02:00:00 13,7 6,8 8 4 NW 20 -
25.09.2018 01:00:00 14,1 6,9 8 4 NNW 20 0,0
25.09.2018 00:00:00 14,6 7,9 9 5 NNW 20 0,0
24.09.2018 23:00:00 15,0 8,2 8 4 NNW 20 -
24.09.2018 22:00:00 14,9 8,4 9 5 NW 20 0,0
24.09.2018 21:00:00 14,7 8,2 5 3 NW 20 0,0
24.09.2018 20:00:00 16,7 8,9 9 5 NW 25 -
24.09.2018 19:00:00 19,3 8,9 11 6 NNW 20 0,0
24.09.2018 18:00:00 20,7 8,3 9 5 NNW 20 0,0
24.09.2018 17:00:00 21,7 8,9 9 5 NNW 50 -
24.09.2018 16:00:00 21,6 8,5 11 6 NNW 20 0,0
24.09.2018 15:00:00 21,2 7,1 9 5 N 20 0,0
24.09.2018 14:00:00 21,0 6,9 9 5 NNW 50 -
24.09.2018 13:00:00 20,9 7,1 9 5 NW 20 0,0
24.09.2018 12:00:00 20,7 7,0 8 4 NW 20 0,0
24.09.2018 11:00:00 20,5 5,7 2 1 W 40 -
24.09.2018 10:00:00 18,2 4,4 4 2 NW 20 0,0
24.09.2018 09:00:00 15,6 2,4 2 1 SW 20 0,0
24.09.2018 08:00:00 15,5 1,6 9 5 N 15 -
24.09.2018 07:00:00 15,9 0,8 8 4 N 20 0,0
24.09.2018 06:00:00 15,7 0,7 9 5 N 20 0,0
24.09.2018 05:00:00 16,0 0,5 5 3 NW 20 -
24.09.2018 04:00:00 16,5 0,2 4 2 NW 20 0,0
24.09.2018 03:00:00 16,2 0,3 4 2 NW 20 0,0
24.09.2018 02:00:00 16,2 0,7 5 3 NNW 20 -
24.09.2018 01:00:00 15,9 0,4 9 5 NE 20 0,0
24.09.2018 00:00:00 15,9 0,4 8 4 NE 20 0,0
23.09.2018 23:00:00 16,5 -2,1 15 8 NNE 20 -
23.09.2018 22:00:00 16,5 -0,3 16 9 N 20 0,0
23.09.2018 21:00:00 16,7 1,9 15 8 N 20 0,0
23.09.2018 20:00:00 18,7 3,3 9 5 NNW 30 -
23.09.2018 19:00:00 20,6 3,3 9 5 N 20 0,0
23.09.2018 18:00:00 21,8 4,4 13 7 NNW 20 0,0
23.09.2018 17:00:00 22,4 4,0 9 5 NNW 30 -
23.09.2018 16:00:00 23,2 5,1 8 4 NNW 20 0,0
23.09.2018 15:00:00 23,5 5,8 11 6 N 20 0,0
23.09.2018 14:00:00 22,4 5,3 9 5 NNW 30 -
23.09.2018 13:00:00 21,6 5,1 8 4 NNW 20 0,0
23.09.2018 12:00:00 21,2 4,7 5 3 NW 20 0,0
23.09.2018 11:00:00 20,1 3,7 4 2 N 30 -
23.09.2018 10:00:00 18,8 2,6 4 2 NW 20 0,0
23.09.2018 09:00:00 15,9 1,2 2 1 N 20 0,0
23.09.2018 08:00:00 16,0 1,3 2 1 NNE 20 -
23.09.2018 07:00:00 16,0 1,3 5 3 NW 20 0,0
23.09.2018 06:00:00 16,2 2,2 5 3 NW 20 0,0
23.09.2018 05:00:00 16,6 1,5 4 2 W 20 -
23.09.2018 04:00:00 16,7 1,5 8 4 WNW 20 0,0
23.09.2018 03:00:00 16,7 1,5 8 4 W 20 0,0
23.09.2018 02:00:00 16,4 1,3 2 1 W 20 -
23.09.2018 01:00:00 16,6 1,5 4 2 WNW 20 0,0
23.09.2018 00:00:00 16,6 1,5 5 3 NW 20 0,0
22.09.2018 23:00:00 16,7 1,1 5 3 NW 20 -
22.09.2018 22:00:00 17,0 1,4 8 4 NW 20 0,0
22.09.2018 21:00:00 17,3 1,3 9 5 NNW 20 0,0
22.09.2018 20:00:00 18,8 3,0 8 4 NNW 20 -
22.09.2018 19:00:00 20,9 3,1 8 4 WNW 20 0,0
22.09.2018 18:00:00 21,6 4,2 9 5 NNW 20 0,0
22.09.2018 17:00:00 21,8 4,8 11 6 NNW 20 -
22.09.2018 16:00:00 21,9 5,7 9 5 NNW 20 0,0
22.09.2018 15:00:00 22,2 6,8 9 5 NW 20 0,0
22.09.2018 14:00:00 20,6 8,2 8 4 NNW 20 -
22.09.2018 13:00:00 22,5 8,2 5 3 WSW 19 0,0
22.09.2018 12:00:00 21,4 6,5 5 3 SW 20 0,0
22.09.2018 11:00:00 18,8 7,2 11 6 W 20 -
22.09.2018 10:00:00 16,8 7,7 11 6 WSW 20 0,0
22.09.2018 09:00:00 13,6 8,0 11 6 WSW 20 0,0
22.09.2018 08:00:00 13,9 7,6 13 7 SW 20 -
22.09.2018 07:00:00 14,0 7,7 15 8 SW 20 0,0
22.09.2018 06:00:00 14,2 7,7 11 6 SW 20 0,0
22.09.2018 05:00:00 14,1 7,2 4 2 W 20 -
22.09.2018 04:00:00 14,3 7,6 15 8 SW 20 0,0
22.09.2018 03:00:00 14,5 7,8 13 7 SW 20 0,0
22.09.2018 02:00:00 14,5 7,5 9 5 SW 20 -
22.09.2018 01:00:00 14,7 7,0 5 3 WSW 20 0,0
22.09.2018 00:00:00 14,5 6,6 2 1 NNW 20 0,0
21.09.2018 23:00:00 14,4 6,7 4 2 NNW 20 -
21.09.2018 22:00:00 14,5 6,8 9 5 N 20 0,0
21.09.2018 21:00:00 14,9 7,0 9 5 NNW 20 0,0
21.09.2018 20:00:00 16,4 7,6 8 4 NNW 20 -
21.09.2018 19:00:00 18,2 9,0 5 3 NW 19 0,0
21.09.2018 18:00:00 19,0 8,0 8 4 NNW 20 0,0
21.09.2018 17:00:00 20,4 8,1 4 2 NNW 20 -
21.09.2018 16:00:00 19,2 8,5 9 5 NNW 20 0,0
21.09.2018 15:00:00 18,3 8,3 9 5 N 20 0,0
21.09.2018 14:00:00 21,3 9,5 5 3 W 20 -
21.09.2018 13:00:00 18,6 8,5 11 6 W 20 0,0
21.09.2018 12:00:00 18,2 8,7 13 7 WSW 19 0,0
21.09.2018 11:00:00 18,4 8,9 5 3 S 15 -
21.09.2018 10:00:00 14,5 7,8 2 1 N 19 0,0
21.09.2018 09:00:00 13,0 7,9 9 5 S 19 0,0
21.09.2018 08:00:00 13,5 7,5 13 7 SSW 15 -
21.09.2018 07:00:00 12,6 7,1 13 7 S 19 0,0
21.09.2018 06:00:00 13,3 6,9 5 3 NW 19 0,0
21.09.2018 05:00:00 13,6 6,7 5 3 WNW 19 -
21.09.2018 04:00:00 13,6 7,4 5 3 NW 19 0,0
21.09.2018 03:00:00 13,5 7,5 11 6 N 19 0,0
21.09.2018 02:00:00 13,6 8,2 9 5 NW 19 -
21.09.2018 01:00:00 14,9 8,4 8 4 NW 19 0,0
21.09.2018 00:00:00 15,3 6,8 5 3 WNW 20 0,0
20.09.2018 23:00:00 15,4 7,4 9 5 W 20 -
20.09.2018 22:00:00 15,2 8,9 5 3 WNW 19 0,0
20.09.2018 21:00:00 15,2 7,7 9 5 WNW 20 0,0
20.09.2018 20:00:00 13,6 8,8 13 7 W 15 -
20.09.2018 19:00:00 14,5 10,3 16 9 SSW 18 0,0
20.09.2018 18:00:00 14,6 10,0 5 3 NW 18 8,0
20.09.2018 17:00:00 16,0 10,1 11 6 WNW 15 -
20.09.2018 16:00:00 20,1 8,7 13 7 SSW 19 0,0
20.09.2018 15:00:00 22,2 10,0 13 7 SSW 19 0,0
20.09.2018 14:00:00 21,5 8,7 15 8 SSW 30 -
20.09.2018 13:00:00 21,3 8,9 13 7 S 20 0,0
20.09.2018 12:00:00 19,8 9,7 8 4 SSW 0,8 0,0
20.09.2018 11:00:00 18,7 9,2 8 4 SSW 25 -
20.09.2018 10:00:00 16,8 7,7 11 6 SSW 0,5 0,0
20.09.2018 09:00:00 14,4 7,0 8 4 SSW 0,5 0,0
20.09.2018 08:00:00 13,7 6,8 11 6 SW 15 -
20.09.2018 07:00:00 13,9 7,2 11 6 WSW 1,3 0,0
20.09.2018 06:00:00 14,0 4,0 9 5 W 0,7 0,0
20.09.2018 05:00:00 14,1 4,7 11 6 WSW 1,6 -
20.09.2018 04:00:00 14,6 6,7 4 2 WSW 0,9 0,0
20.09.2018 03:00:00 14,9 8,1 5 3 NNW 19 0,0
20.09.2018 02:00:00 14,8 8,1 13 7 SSW 0,6 -
20.09.2018 01:00:00 14,8 8,3 13 7 SSW 0,7 0,0
20.09.2018 00:00:00 14,6 9,0 13 7 SSW 0,7 0,0
19.09.2018 23:00:00 14,5 8,9 13 7 S 0,7 -
19.09.2018 22:00:00 15,0 8,9 13 7 S 0,6 0,0
19.09.2018 21:00:00 15,6 8,8 11 6 S 0,7 0,0
19.09.2018 20:00:00 16,0 8,5 11 6 S 30 -
19.09.2018 19:00:00 16,4 7,1 4 2 ESE 20 0,0
19.09.2018 18:00:00 17,4 9,8 4 2 SE 19 0,0
19.09.2018 17:00:00 16,6 10,7 4 2 SE 25 -
19.09.2018 16:00:00 14,8 10,0 4 2 S 19 0,2
19.09.2018 15:00:00 13,3 10,5 16 9 ESE 12 3,0
19.09.2018 14:00:00 17,7 9,3 4 2 WSW 30 -
19.09.2018 13:00:00 17,5 9,1 5 3 WNW 20 0,0

tt = Température de l'air
td = dewpoint
ff = Vitesse du vent
dd = Direction du vent
vv = visibility
rr = Quantités de précipitations

stations d'obs. à proximité